createdAt,value
2018-11-01T00:00:34.052Z,5.53
2018-11-01T00:03:02.240Z,6.15
2018-11-01T00:05:30.405Z,5.72
2018-11-01T00:07:58.526Z,5.92
2018-11-01T00:10:26.633Z,5.80
2018-11-01T00:12:54.800Z,6.05
2018-11-01T00:15:23.001Z,5.92
2018-11-01T00:17:51.145Z,5.90
2018-11-01T00:20:19.364Z,5.85
2018-11-01T00:22:47.505Z,6.00
2018-11-01T00:25:15.725Z,6.33
2018-11-01T00:27:43.995Z,5.95
2018-11-01T00:30:12.241Z,5.83
2018-11-01T00:32:40.381Z,5.83
2018-11-01T00:35:09.146Z,5.73
2018-11-01T00:37:37.275Z,5.97
2018-11-01T00:40:08.897Z,5.95
2018-11-01T00:42:36.992Z,6.10
2018-11-01T00:45:06.119Z,5.92
2018-11-01T00:47:34.229Z,6.12
2018-11-01T00:50:02.406Z,5.67
2018-11-01T00:52:30.537Z,6.00
2018-11-01T00:54:58.760Z,6.10
2018-11-01T00:57:26.957Z,5.83
2018-11-01T00:59:55.173Z,6.17
2018-11-01T01:02:23.341Z,5.95
2018-11-01T01:04:51.464Z,6.15
2018-11-01T01:07:19.680Z,6.33
2018-11-01T01:09:47.932Z,6.22
2018-11-01T01:12:16.048Z,6.08
2018-11-01T01:14:44.401Z,6.33
2018-11-01T01:17:12.513Z,5.75
2018-11-01T01:19:40.650Z,6.35
2018-11-01T01:22:08.796Z,6.00
2018-11-01T01:24:36.931Z,6.03
2018-11-01T01:27:05.041Z,5.93
2018-11-01T01:29:33.177Z,6.30
2018-11-01T01:32:01.403Z,5.92
2018-11-01T01:34:29.592Z,6.00
2018-11-01T01:36:57.654Z,5.87
2018-11-01T01:39:25.892Z,6.07
2018-11-01T01:41:54.116Z,6.00
2018-11-01T01:44:22.227Z,5.85
2018-11-01T01:46:50.350Z,5.83
2018-11-01T01:49:18.481Z,5.80
2018-11-01T01:51:46.659Z,5.92
2018-11-01T01:54:14.772Z,5.62
2018-11-01T01:56:42.996Z,6.12
2018-11-01T01:59:11.692Z,5.58
2018-11-01T02:01:39.837Z,5.90
2018-11-01T02:04:08.007Z,5.92
2018-11-01T02:06:36.322Z,6.05
2018-11-01T02:09:06.657Z,5.92
2018-11-01T02:11:34.801Z,6.17
2018-11-01T02:14:02.919Z,5.92
2018-11-01T02:16:31.090Z,5.62
2018-11-01T02:18:59.609Z,5.65
2018-11-01T02:21:27.723Z,5.83
2018-11-01T02:23:55.902Z,6.15
2018-11-01T02:26:24.029Z,6.00
2018-11-01T02:28:52.213Z,5.30
2018-11-01T02:31:20.364Z,5.63
2018-11-01T02:33:48.557Z,5.62
2018-11-01T02:36:16.763Z,5.58
2018-11-01T02:38:45.094Z,5.70
2018-11-01T02:41:13.197Z,5.73
2018-11-01T02:43:41.257Z,5.42
2018-11-01T02:46:09.373Z,5.87
2018-11-01T02:48:37.642Z,5.00
2018-11-01T02:51:05.717Z,5.90
2018-11-01T02:53:33.957Z,5.90
2018-11-01T02:56:02.036Z,5.40
2018-11-01T02:58:30.118Z,5.42
2018-11-01T03:00:58.215Z,5.58
2018-11-01T03:03:26.413Z,5.67
2018-11-01T03:05:54.495Z,5.53
2018-11-01T03:08:22.664Z,5.80
2018-11-01T03:10:50.765Z,5.55
2018-11-01T03:13:18.853Z,5.72
2018-11-01T03:15:46.953Z,6.03
2018-11-01T03:18:15.125Z,5.50
2018-11-01T03:20:43.202Z,5.53
2018-11-01T03:23:11.396Z,5.67
2018-11-01T03:25:39.494Z,5.80
2018-11-01T03:28:07.583Z,5.47
2018-11-01T03:30:35.687Z,5.40
2018-11-01T03:33:03.845Z,5.53
2018-11-01T03:35:31.938Z,5.80
2018-11-01T03:38:00.095Z,5.60
2018-11-01T03:40:28.121Z,5.65
2018-11-01T03:42:56.180Z,5.70
2018-11-01T03:45:24.296Z,5.85
2018-11-01T03:47:52.428Z,5.70
2018-11-01T03:50:20.525Z,5.80
2018-11-01T03:52:48.609Z,5.80
2018-11-01T03:55:16.712Z,5.97
2018-11-01T03:57:44.799Z,5.87
2018-11-01T04:00:15.034Z,6.40
2018-11-01T04:02:44.013Z,6.00
2018-11-01T04:05:12.169Z,6.10
2018-11-01T04:07:40.529Z,5.83
2018-11-01T04:10:09.620Z,6.10
2018-11-01T04:12:37.825Z,5.60
2018-11-01T04:15:07.965Z,6.05
2018-11-01T04:17:36.158Z,6.22
2018-11-01T04:20:04.634Z,6.75
2018-11-01T04:22:32.728Z,6.45
2018-11-01T04:25:00.868Z,6.40
2018-11-01T04:27:28.965Z,6.87
2018-11-01T04:29:57.515Z,6.40
2018-11-01T04:32:25.577Z,6.33
2018-11-01T04:34:53.660Z,6.97
2018-11-01T04:37:21.748Z,6.62
2018-11-01T04:39:49.852Z,6.60
2018-11-01T04:42:18.100Z,6.58
2018-11-01T04:44:46.221Z,6.60
2018-11-01T04:47:15.157Z,6.85
2018-11-01T04:49:43.208Z,6.70
2018-11-01T04:52:11.285Z,6.65
2018-11-01T04:54:39.381Z,6.60
2018-11-01T04:57:07.512Z,7.25
2018-11-01T04:59:35.592Z,6.90
2018-11-01T05:02:03.664Z,6.93
2018-11-01T05:04:31.757Z,6.75
2018-11-01T05:06:59.928Z,7.17
2018-11-01T05:09:28.144Z,6.92
2018-11-01T05:11:56.253Z,6.80
2018-11-01T05:14:24.394Z,7.35
2018-11-01T05:16:52.592Z,7.47
2018-11-01T05:19:20.743Z,7.97
2018-11-01T05:21:48.868Z,7.62
2018-11-01T05:24:17.097Z,8.68
2018-11-01T05:26:45.293Z,9.13
2018-11-01T05:29:13.820Z,9.73
2018-11-01T05:31:41.937Z,8.90
2018-11-01T05:34:10.184Z,8.60
2018-11-01T05:36:38.289Z,8.43
2018-11-01T05:39:08.461Z,8.15
2018-11-01T05:41:36.704Z,8.10
2018-11-01T05:44:05.060Z,7.75
2018-11-01T05:46:33.217Z,8.30
2018-11-01T05:49:01.393Z,8.10
2018-11-01T05:51:29.696Z,7.90
2018-11-01T05:53:57.780Z,8.63
2018-11-01T05:56:25.927Z,7.75
2018-11-01T05:58:54.036Z,7.92
2018-11-01T06:01:27.724Z,8.00
2018-11-01T06:03:55.836Z,8.20
2018-11-01T06:06:24.017Z,8.23
2018-11-01T06:08:52.164Z,8.43
2018-11-01T06:11:20.252Z,7.87
2018-11-01T06:13:48.338Z,8.53
2018-11-01T06:16:16.520Z,8.70
2018-11-01T06:18:44.617Z,8.78
2018-11-01T06:21:12.785Z,8.15
2018-11-01T06:23:40.840Z,8.60
2018-11-01T06:26:08.920Z,8.60
2018-11-01T06:28:37.000Z,8.90
2018-11-01T06:31:05.212Z,8.70
2018-11-01T06:33:33.328Z,8.95
2018-11-01T06:36:05.779Z,8.58
2018-11-01T06:38:33.892Z,9.43
2018-11-01T06:41:01.960Z,8.53
2018-11-01T06:43:30.101Z,10.05
2018-11-01T06:45:58.200Z,9.50
2018-11-01T06:48:26.267Z,10.35
2018-11-01T06:50:54.352Z,10.40
2018-11-01T06:53:22.440Z,10.63
2018-11-01T06:55:50.512Z,10.43
2018-11-01T06:58:18.782Z,10.65
2018-11-01T07:00:46.832Z,10.30
2018-11-01T07:03:14.976Z,10.70
2018-11-01T07:05:43.180Z,11.53
2018-11-01T07:08:11.176Z,11.63
2018-11-01T07:10:39.378Z,11.45
2018-11-01T07:13:07.499Z,12.03
2018-11-01T07:15:35.624Z,12.88
2018-11-01T07:18:03.740Z,12.45
2018-11-01T07:20:31.827Z,12.80
2018-11-01T07:22:59.917Z,13.58
2018-11-01T07:25:28.176Z,13.63
2018-11-01T07:27:56.157Z,12.50
2018-11-01T07:30:24.313Z,11.53
2018-11-01T07:32:52.439Z,12.07
2018-11-01T07:35:20.482Z,10.38
2018-11-01T07:37:48.552Z,10.00
2018-11-01T07:40:17.726Z,9.45
2018-11-01T07:42:45.840Z,9.40
2018-11-01T07:45:14.324Z,8.73
2018-11-01T07:47:43.441Z,8.63
2018-11-01T07:50:12.418Z,8.98
2018-11-01T07:52:41.091Z,8.88
2018-11-01T07:55:11.424Z,8.30
2018-11-01T07:57:39.607Z,9.18
2018-11-01T08:00:16.405Z,9.13
2018-11-01T08:02:45.502Z,9.10
2018-11-01T08:05:13.880Z,8.63
2018-11-01T08:07:42.353Z,9.17
2018-11-01T08:10:12.996Z,8.68
2018-11-01T08:12:42.176Z,9.20
2018-11-01T08:15:12.710Z,9.18
2018-11-01T08:17:40.980Z,9.30
2018-11-01T08:20:10.441Z,8.95
2018-11-01T08:22:38.414Z,9.10
2018-11-01T08:25:06.606Z,8.88
2018-11-01T08:27:34.716Z,9.13
2018-11-01T08:30:02.814Z,8.43
2018-11-01T08:32:30.921Z,8.60
2018-11-01T08:34:59.612Z,8.88
2018-11-01T08:37:27.969Z,9.00
2018-11-01T08:39:56.080Z,9.18
2018-11-01T08:42:24.215Z,9.33
2018-11-01T08:44:52.425Z,8.90
2018-11-01T08:47:20.536Z,9.28
2018-11-01T08:49:48.661Z,9.30
2018-11-01T08:52:16.778Z,9.10
2018-11-01T08:54:44.881Z,9.00
2018-11-01T08:57:13.101Z,9.05
2018-11-01T08:59:41.241Z,8.85
2018-11-01T09:02:09.384Z,8.90
2018-11-01T09:04:37.492Z,8.70
2018-11-01T09:07:06.000Z,8.68
2018-11-01T09:09:34.177Z,9.10
2018-11-01T09:12:02.366Z,8.50
2018-11-01T09:14:30.468Z,8.58
2018-11-01T09:16:58.568Z,8.93
2018-11-01T09:19:26.810Z,8.85
2018-11-01T09:21:54.878Z,8.90
2018-11-01T09:24:22.941Z,8.78
2018-11-01T09:26:51.122Z,8.93
2018-11-01T09:29:19.180Z,8.80
2018-11-01T09:31:47.240Z,8.23
2018-11-01T09:34:15.339Z,8.28
2018-11-01T09:36:43.553Z,8.50
2018-11-01T09:40:01.309Z,8.85
2018-11-01T09:42:29.388Z,8.63
2018-11-01T09:44:57.486Z,9.20
2018-11-01T09:47:25.947Z,9.30
2018-11-01T09:49:53.709Z,8.95
2018-11-01T09:52:21.813Z,9.18
2018-11-01T09:54:49.951Z,8.93
2018-11-01T09:57:18.080Z,9.08
2018-11-01T09:59:46.237Z,9.03
2018-11-01T10:02:14.298Z,9.40
2018-11-01T10:04:42.442Z,9.25
2018-11-01T10:07:10.636Z,9.70
2018-11-01T10:09:38.658Z,10.85
2018-11-01T10:12:06.724Z,11.18
2018-11-01T10:14:34.968Z,11.30
2018-11-01T10:17:03.316Z,11.43
2018-11-01T10:19:31.124Z,11.57
2018-11-01T10:21:59.415Z,11.60
2018-11-01T10:24:27.446Z,12.13
2018-11-01T10:26:55.541Z,11.53
2018-11-01T10:29:23.730Z,11.78
2018-11-01T10:31:51.781Z,11.00
2018-11-01T10:34:19.912Z,11.05
2018-11-01T10:36:48.006Z,11.00
2018-11-01T10:39:16.096Z,11.03
2018-11-01T10:41:44.170Z,11.27
2018-11-01T10:44:12.353Z,10.60
2018-11-01T10:46:40.412Z,11.38
2018-11-01T10:49:08.768Z,11.65
2018-11-01T10:51:36.904Z,11.63
2018-11-01T10:54:05.158Z,10.80
2018-11-01T10:56:33.295Z,10.63
2018-11-01T10:59:01.472Z,10.93
2018-11-01T11:01:34.884Z,11.30
2018-11-01T11:04:03.268Z,11.40
2018-11-01T11:06:31.427Z,11.33
2018-11-01T11:08:59.499Z,11.50
2018-11-01T11:11:27.676Z,11.33
2018-11-01T11:13:55.813Z,11.75
2018-11-01T11:16:24.130Z,11.65
2018-11-01T11:18:52.226Z,11.65
2018-11-01T11:21:20.436Z,12.03
2018-11-01T11:23:48.928Z,11.70
2018-11-01T11:26:17.270Z,11.60
2018-11-01T11:28:45.381Z,12.13
2018-11-01T11:31:14.497Z,12.15
2018-11-01T11:33:42.917Z,12.25
2018-11-01T11:36:11.188Z,12.10
2018-11-01T11:38:39.581Z,12.07
2018-11-01T11:41:07.704Z,11.70
2018-11-01T11:43:35.968Z,12.43
2018-11-01T11:46:04.259Z,12.37
2018-11-01T11:48:32.293Z,13.03
2018-11-01T11:51:00.403Z,13.38
2018-11-01T11:53:28.569Z,13.22
2018-11-01T11:55:56.691Z,12.90
2018-11-01T11:58:24.799Z,13.22
2018-11-01T12:00:52.919Z,12.78
2018-11-01T12:03:21.013Z,12.18
2018-11-01T12:05:49.248Z,12.55
2018-11-01T12:08:17.408Z,11.88
2018-11-01T12:10:45.540Z,12.25
2018-11-01T12:13:13.635Z,12.37
2018-11-01T12:15:41.829Z,12.58
2018-11-01T12:18:09.978Z,13.00
2018-11-01T12:20:38.276Z,12.68
2018-11-01T12:23:06.372Z,12.63
2018-11-01T12:25:34.561Z,12.77
2018-11-01T12:28:02.643Z,13.10
2018-11-01T12:30:30.721Z,12.82
2018-11-01T12:32:58.825Z,12.88
2018-11-01T12:35:27.107Z,12.63
2018-11-01T12:37:55.238Z,12.55
2018-11-01T12:40:23.336Z,12.95
2018-11-01T12:42:51.451Z,13.60
2018-11-01T12:45:19.599Z,13.88
2018-11-01T12:47:47.736Z,13.80
2018-11-01T12:50:16.096Z,14.07
2018-11-01T12:52:44.073Z,13.80
2018-11-01T12:55:12.397Z,14.47
2018-11-01T12:57:40.514Z,14.33
2018-11-01T13:00:10.240Z,14.60
2018-11-01T13:02:38.501Z,14.10
2018-11-01T13:05:06.679Z,14.68
2018-11-01T13:07:34.796Z,13.85
2018-11-01T13:10:03.029Z,14.03
2018-11-01T13:12:31.132Z,14.00
2018-11-01T13:14:59.295Z,14.10
2018-11-01T13:17:27.432Z,13.40
2018-11-01T13:19:55.652Z,13.32
2018-11-01T13:22:23.777Z,13.22
2018-11-01T13:24:52.184Z,13.00
2018-11-01T13:27:20.461Z,12.78
2018-11-01T13:29:48.617Z,12.78
2018-11-01T13:32:16.974Z,12.78
2018-11-01T13:34:45.161Z,12.60
2018-11-01T13:37:13.317Z,12.58
2018-11-01T13:39:41.533Z,14.70
2018-11-01T13:42:09.549Z,11.80
2018-11-01T13:44:38.108Z,12.50
2018-11-01T13:47:06.405Z,12.13
2018-11-01T13:49:34.484Z,12.07
2018-11-01T13:52:02.717Z,12.93
2018-11-01T13:54:30.840Z,13.20
2018-11-01T13:56:58.893Z,12.75
2018-11-01T13:59:26.968Z,13.08
2018-11-01T14:01:55.077Z,12.93
2018-11-01T14:04:23.140Z,12.58
2018-11-01T14:06:51.264Z,12.37
2018-11-01T14:09:19.369Z,13.08
2018-11-01T14:11:47.513Z,14.00
2018-11-01T14:14:15.969Z,13.32
2018-11-01T14:16:43.808Z,13.60
2018-11-01T14:19:11.889Z,13.83
2018-11-01T14:21:40.094Z,14.20
2018-11-01T14:24:08.337Z,12.80
2018-11-01T14:26:36.548Z,12.90
2018-11-01T14:29:04.913Z,12.55
2018-11-01T14:31:33.028Z,12.82
2018-11-01T14:34:01.128Z,12.55
2018-11-01T14:36:29.307Z,12.93
2018-11-01T14:38:57.396Z,12.88
2018-11-01T14:41:25.479Z,13.03
2018-11-01T14:43:53.592Z,12.90
2018-11-01T14:46:21.792Z,13.00
2018-11-01T14:48:50.033Z,13.43
2018-11-01T14:51:18.259Z,12.82
2018-11-01T14:53:46.538Z,13.03
2018-11-01T14:56:15.727Z,12.70
2018-11-01T14:58:43.659Z,12.45
2018-11-01T15:01:10.852Z,12.88
2018-11-01T15:03:38.957Z,13.27
2018-11-01T15:06:07.136Z,13.10
2018-11-01T15:08:35.272Z,13.40
2018-11-01T15:11:03.331Z,12.95
2018-11-01T15:13:31.504Z,13.38
2018-11-01T15:15:59.772Z,13.38
2018-11-01T15:18:27.951Z,13.50
2018-11-01T15:20:56.133Z,13.50
2018-11-01T15:23:24.215Z,14.10
2018-11-01T15:25:52.289Z,14.03
2018-11-01T15:28:20.603Z,17.87
2018-11-01T15:30:48.797Z,16.65
2018-11-01T15:33:16.892Z,15.20
2018-11-01T15:35:45.136Z,15.88
2018-11-01T15:38:13.282Z,14.30
2018-11-01T15:40:41.402Z,15.40
2018-11-01T15:43:09.544Z,16.25
2018-11-01T15:45:37.653Z,15.30
2018-11-01T15:48:05.804Z,15.70
2018-11-01T15:50:33.948Z,16.80
2018-11-01T15:53:02.025Z,15.50
2018-11-01T15:55:30.261Z,15.98
2018-11-01T15:57:58.348Z,15.63
2018-11-01T16:00:26.456Z,15.60
2018-11-01T16:02:54.643Z,14.23
2018-11-01T16:05:22.714Z,15.32
2018-11-01T16:07:50.908Z,15.80
2018-11-01T16:10:19.056Z,17.82
2018-11-01T16:12:47.226Z,16.87
2018-11-01T16:15:16.595Z,18.20
2018-11-01T16:17:44.894Z,17.77
2018-11-01T16:20:13.052Z,17.77
2018-11-01T16:22:41.668Z,17.98
2018-11-01T16:25:09.748Z,17.62
2018-11-01T16:27:37.940Z,19.87
2018-11-01T16:30:07.272Z,20.37
2018-11-01T16:32:35.413Z,20.97
2018-11-01T16:35:03.568Z,22.37
2018-11-01T16:37:31.664Z,23.62
2018-11-01T16:40:00.018Z,23.60
2018-11-01T16:42:28.272Z,23.00
2018-11-01T16:44:56.306Z,22.07
2018-11-01T16:47:24.528Z,21.23
2018-11-01T16:49:52.812Z,19.52
2018-11-01T16:52:21.120Z,19.12
2018-11-01T16:54:49.302Z,19.07
2018-11-01T16:57:17.636Z,21.25
2018-11-01T16:59:45.861Z,22.07
2018-11-01T17:02:14.032Z,21.48
2018-11-01T17:04:42.255Z,21.47
2018-11-01T17:07:10.353Z,23.83
2018-11-01T17:09:38.607Z,22.65
2018-11-01T17:12:06.703Z,23.42
2018-11-01T17:14:34.913Z,22.85
2018-11-01T17:17:03.109Z,25.60
2018-11-01T17:19:31.398Z,24.00
2018-11-01T17:21:59.556Z,25.12
2018-11-01T17:24:27.724Z,25.77
2018-11-01T17:26:55.892Z,26.20
2018-11-01T17:29:24.032Z,26.70
2018-11-01T17:31:52.160Z,24.50
2018-11-01T17:34:20.337Z,22.60
2018-11-01T17:36:48.545Z,22.75
2018-11-01T17:39:16.677Z,23.50
2018-11-01T17:41:44.864Z,24.80
2018-11-01T17:44:12.960Z,25.10
2018-11-01T17:46:41.177Z,27.62
2018-11-01T17:49:09.558Z,27.82
2018-11-01T17:51:37.749Z,31.30
2018-11-01T17:54:05.847Z,28.35
2018-11-01T17:56:34.053Z,29.90
2018-11-01T17:59:02.177Z,27.07
2018-11-01T18:01:30.291Z,27.27
2018-11-01T18:03:58.405Z,28.53
2018-11-01T18:06:26.542Z,28.98
2018-11-01T18:08:54.655Z,28.60
2018-11-01T18:11:22.793Z,28.42
2018-11-01T18:13:50.904Z,30.52
2018-11-01T18:16:18.977Z,28.75
2018-11-01T18:18:47.074Z,30.97
2018-11-01T18:21:15.192Z,31.77
2018-11-01T18:23:43.384Z,28.30
2018-11-01T18:26:11.599Z,29.95
2018-11-01T18:28:39.772Z,32.35
2018-11-01T18:31:07.847Z,30.80
2018-11-01T18:33:36.038Z,29.55
2018-11-01T18:36:04.621Z,28.73
2018-11-01T18:38:32.821Z,28.47
2018-11-01T18:41:01.057Z,27.70
2018-11-01T18:43:29.157Z,30.62
2018-11-01T18:45:57.254Z,26.55
2018-11-01T18:48:25.462Z,26.82
2018-11-01T18:50:53.546Z,24.85
2018-11-01T18:53:21.625Z,24.85
2018-11-01T18:55:49.840Z,25.75
2018-11-01T18:58:17.936Z,26.90
2018-11-01T19:00:46.083Z,28.07
2018-11-01T19:03:14.140Z,37.58
2018-11-01T19:05:42.224Z,27.98
2018-11-01T19:08:10.520Z,26.50
2018-11-01T19:10:38.582Z,26.27
2018-11-01T19:13:06.665Z,28.10
2018-11-01T19:15:34.791Z,27.80
2018-11-01T19:18:03.048Z,26.05
2018-11-01T19:20:31.246Z,25.30
2018-11-01T19:22:59.329Z,23.30
2018-11-01T19:25:27.458Z,24.47
2018-11-01T19:27:55.591Z,23.27
2018-11-01T19:30:23.645Z,24.37
2018-11-01T19:32:51.812Z,30.55
2018-11-01T19:35:19.893Z,28.05
2018-11-01T19:37:48.194Z,26.12
2018-11-01T19:40:16.497Z,27.98
2018-11-01T19:42:45.009Z,30.27
2018-11-01T19:45:13.097Z,29.05
2018-11-01T19:47:41.365Z,27.82
2018-11-01T19:50:11.321Z,35.68
2018-11-01T19:52:39.480Z,38.05
2018-11-01T19:55:09.247Z,32.23
2018-11-01T19:57:39.677Z,31.42
2018-11-01T20:00:09.801Z,35.58
2018-11-01T20:02:38.066Z,31.97
2018-11-01T20:05:06.905Z,28.05
2018-11-01T20:07:35.025Z,24.72
2018-11-01T20:10:03.195Z,24.87
2018-11-01T20:12:31.248Z,24.43
2018-11-01T20:14:59.604Z,24.25
2018-11-01T20:17:27.544Z,25.35
2018-11-01T20:19:55.637Z,24.23
2018-11-01T20:22:23.721Z,24.40
2018-11-01T20:24:51.924Z,25.92
2018-11-01T20:27:20.109Z,24.73
2018-11-01T20:29:48.204Z,22.30
2018-11-01T20:32:16.334Z,21.50
2018-11-01T20:34:44.511Z,21.95
2018-11-01T20:37:14.835Z,21.10
2018-11-01T20:39:44.888Z,20.97
2018-11-01T20:42:14.233Z,20.35
2018-11-01T20:44:42.590Z,20.62
2018-11-01T20:47:10.822Z,20.20
2018-11-01T20:49:38.973Z,20.62
2018-11-01T20:52:07.132Z,22.60
2018-11-01T20:54:35.321Z,23.95
2018-11-01T20:57:03.497Z,23.17
2018-11-01T20:59:31.580Z,22.02
2018-11-01T21:01:59.656Z,20.80
2018-11-01T21:04:27.874Z,19.77
2018-11-01T21:06:55.962Z,19.77
2018-11-01T21:09:24.174Z,19.87
2018-11-01T21:11:52.416Z,19.45
2018-11-01T21:14:20.353Z,19.02
2018-11-01T21:16:48.559Z,20.25
2018-11-01T21:19:16.708Z,19.80
2018-11-01T21:21:45.857Z,19.90
2018-11-01T21:24:14.052Z,20.40
2018-11-01T21:26:42.229Z,20.30
2018-11-01T21:29:10.377Z,20.90
2018-11-01T21:31:38.453Z,21.05
2018-11-01T21:34:06.597Z,21.48
2018-11-01T21:36:34.756Z,21.15
2018-11-01T21:39:02.920Z,21.05
2018-11-01T21:41:31.037Z,20.37
2018-11-01T21:43:59.232Z,18.87
2018-11-01T21:46:27.394Z,20.30
2018-11-01T21:48:55.461Z,20.10
2018-11-01T21:51:23.665Z,20.68
2018-11-01T21:53:51.768Z,19.87
2018-11-01T21:56:19.871Z,19.30
2018-11-01T21:58:47.973Z,18.80
2018-11-01T22:01:16.133Z,19.10
2018-11-01T22:03:44.202Z,19.35
2018-11-01T22:06:13.512Z,20.05
2018-11-01T22:08:41.613Z,19.50
2018-11-01T22:11:09.802Z,18.87
2018-11-01T22:13:38.118Z,18.73
2018-11-01T22:16:06.752Z,18.95
2018-11-01T22:18:34.862Z,17.87
2018-11-01T22:21:02.998Z,18.62
2018-11-01T22:23:31.125Z,18.80
2018-11-01T22:25:59.263Z,19.40
2018-11-01T22:28:27.361Z,19.42
2018-11-01T22:30:55.439Z,20.77
2018-11-01T22:33:23.776Z,22.17
2018-11-01T22:35:51.862Z,23.55
2018-11-01T22:38:19.970Z,25.77
2018-11-01T22:40:48.264Z,27.65
2018-11-01T22:43:16.434Z,28.50
2018-11-01T22:45:44.568Z,27.50
2018-11-01T22:48:12.817Z,27.17
2018-11-01T22:50:40.902Z,27.58
2018-11-01T22:53:09.010Z,26.60
2018-11-01T22:55:37.090Z,25.73
2018-11-01T22:58:05.264Z,27.77
2018-11-01T23:00:33.473Z,27.67
2018-11-01T23:03:01.726Z,27.73
2018-11-01T23:05:29.813Z,28.12
2018-11-01T23:07:57.908Z,28.85
2018-11-01T23:10:26.036Z,30.40
2018-11-01T23:12:54.263Z,30.45
2018-11-01T23:15:22.373Z,30.37
2018-11-01T23:17:50.684Z,30.37
2018-11-01T23:20:18.792Z,29.40
2018-11-01T23:22:46.886Z,28.35
2018-11-01T23:25:15.024Z,31.20
2018-11-01T23:27:43.184Z,30.55
2018-11-01T23:30:11.336Z,33.80
2018-11-01T23:32:39.488Z,32.60
2018-11-01T23:35:07.560Z,27.83
2018-11-01T23:37:41.065Z,28.70
2018-11-01T23:40:14.498Z,31.90
2018-11-01T23:42:48.130Z,29.42
2018-11-01T23:45:21.811Z,28.07
2018-11-01T23:47:55.374Z,27.65
2018-11-01T23:50:26.252Z,26.93
2018-11-01T23:52:57.717Z,25.95
2018-11-01T23:55:25.839Z,25.52
2018-11-01T23:57:53.938Z,25.48
